Time;durP1;ratioP1;P1;durP2;ratioP2;P2;SDS_P1;SDS_P2;PMS_P1;PMS_P2;Temp;Humidity;BMP_temperature;BMP_pressure;BME280_temperature;BME280_humidity;BME280_pressure;Samples;Min_cycle;Max_cycle;Signal;HPM_P1;HPM_P2
2021/04/04 00:01:25;;;;;;;5.93;2.90;;;10.40;58.90;;;;;;5054352;28;20124;-52
2021/04/04 00:03:51;;;;;;;10.70;4.00;;;10.30;58.90;;;;;;5054547;28;20112;-52
2021/04/04 00:06:16;;;;;;;8.90;3.67;;;10.30;58.90;;;;;;5054398;28;20079;-52
2021/04/04 00:08:43;;;;;;;8.15;3.47;;;10.30;59.00;;;;;;5054157;28;20089;-52
2021/04/04 00:11:09;;;;;;;6.65;2.50;;;10.30;59.00;;;;;;5054255;28;20453;-52
2021/04/04 00:13:35;;;;;;;9.32;2.33;;;10.30;59.00;;;;;;5054564;28;20032;-52
2021/04/04 00:16:02;;;;;;;6.38;2.80;;;10.30;59.10;;;;;;5054178;28;20025;-52
2021/04/04 00:18:27;;;;;;;7.43;2.47;;;10.30;59.00;;;;;;5053891;28;20021;-52
2021/04/04 00:20:53;;;;;;;6.60;2.65;;;10.30;59.10;;;;;;5054408;28;20571;-52
2021/04/04 00:23:18;;;;;;;5.95;2.15;;;10.30;59.10;;;;;;5054277;28;20024;-52
2021/04/04 00:25:44;;;;;;;5.95;2.42;;;10.30;59.20;;;;;;5053984;28;20478;-52
2021/04/04 00:28:10;;;;;;;8.23;2.20;;;10.30;59.20;;;;;;5054045;28;20025;-52
2021/04/04 00:30:35;;;;;;;5.22;2.70;;;10.20;59.20;;;;;;5053837;28;20460;-52
2021/04/04 00:33:01;;;;;;;4.70;2.33;;;10.20;59.20;;;;;;5053695;28;20037;-52
2021/04/04 00:35:27;;;;;;;3.47;1.85;;;10.20;59.20;;;;;;5053671;28;20047;-52
2021/04/04 00:37:54;;;;;;;3.25;1.65;;;10.20;59.30;;;;;;5053921;28;20112;-52
2021/04/04 00:40:26;;;;;;;6.53;2.35;;;10.20;59.30;;;;;;5053545;28;20070;-52
2021/04/04 00:42:52;;;;;;;12.05;2.55;;;10.20;59.30;;;;;;5053914;28;20389;-52
2021/04/04 00:45:20;;;;;;;6.38;2.35;;;10.20;59.30;;;;;;5054169;28;20025;-52
2021/04/04 00:47:46;;;;;;;6.13;2.63;;;10.20;59.40;;;;;;5053247;28;20028;-52
2021/04/04 00:50:12;;;;;;;4.93;2.60;;;10.20;59.40;;;;;;5053080;28;20075;-52
2021/04/04 00:52:39;;;;;;;7.07;2.08;;;10.20;59.40;;;;;;5053640;28;20029;-52
2021/04/04 00:55:06;;;;;;;6.60;3.00;;;10.20;59.50;;;;;;5054024;28;20025;-52
2021/04/04 00:57:33;;;;;;;6.43;1.90;;;10.20;59.50;;;;;;5052807;28;20013;-52
2021/04/04 01:00:00;;;;;;;6.75;2.75;;;10.20;59.50;;;;;;5053284;28;20409;-52
2021/04/04 01:02:25;;;;;;;4.45;2.78;;;10.20;60.10;;;;;;5052971;28;20446;-52
2021/04/04 01:04:51;;;;;;;5.90;2.33;;;10.10;59.60;;;;;;5053368;28;20031;-52
2021/04/04 01:07:17;;;;;;;4.57;2.20;;;10.10;59.60;;;;;;5053253;28;20041;-52
2021/04/04 01:09:44;;;;;;;6.55;2.20;;;10.10;59.60;;;;;;5053098;28;20028;-52
2021/04/04 01:12:39;;;;;;;4.78;2.50;;;10.10;59.60;;;;;;5051989;28;20033;-52
2021/04/04 01:15:18;;;;;;;5.75;2.22;;;10.10;59.60;;;;;;5053183;28;20446;-52
2021/04/04 01:17:48;;;;;;;5.50;1.85;;;10.10;59.70;;;;;;5052944;28;20400;-52
2021/04/04 01:20:25;;;;;;;7.13;2.00;;;10.10;59.70;;;;;;5053100;28;20021;-52
2021/04/04 01:22:58;;;;;;;17.27;2.90;;;10.10;59.70;;;;;;5052830;28;20033;-52
2021/04/04 01:25:53;;;;;;;3.95;2.40;;;10.10;59.80;;;;;;5052707;28;20033;-52
2021/04/04 01:28:26;;;;;;;10.02;2.67;;;10.00;59.70;;;;;;5052970;28;20048;-52
2021/04/04 01:30:52;;;;;;;4.10;2.45;;;10.00;59.80;;;;;;5053198;28;20032;-52
2021/04/04 01:33:19;;;;;;;8.55;2.60;;;10.00;59.80;;;;;;5052966;28;20108;-52
2021/04/04 01:35:53;;;;;;;5.82;2.08;;;10.00;59.80;;;;;;5052804;28;20075;-52
2021/04/04 01:38:23;;;;;;;6.82;2.42;;;10.00;59.80;;;;;;5052751;28;20029;-52
2021/04/04 01:40:55;;;;;;;3.63;2.10;;;10.00;59.80;;;;;;5053035;28;20053;-52
2021/04/04 01:43:21;;;;;;;7.63;2.15;;;10.00;59.80;;;;;;5052885;28;20409;-52
2021/04/04 01:45:49;;;;;;;8.10;2.35;;;10.00;59.90;;;;;;5052910;28;20462;-52
2021/04/04 01:48:15;;;;;;;5.53;2.53;;;10.00;60.00;;;;;;5052345;28;20412;-52
2021/04/04 01:50:42;;;;;;;5.63;2.45;;;10.00;60.00;;;;;;5052846;28;20059;-52
2021/04/04 01:53:10;;;;;;;11.50;2.38;;;10.00;60.00;;;;;;5052817;28;20086;-52
2021/04/04 01:55:38;;;;;;;7.38;1.92;;;10.00;60.00;;;;;;5053033;28;20404;-52
2021/04/04 01:58:07;;;;;;;2.70;1.90;;;10.00;60.00;;;;;;5052810;28;20035;-52
2021/04/04 02:00:32;;;;;;;3.45;2.08;;;10.00;60.00;;;;;;5052501;28;20442;-52
2021/04/04 02:02:59;;;;;;;4.70;2.22;;;10.00;60.00;;;;;;5052732;28;20032;-52
2021/04/04 02:05:25;;;;;;;5.22;2.17;;;9.90;60.00;;;;;;5052894;28;20396;-52
2021/04/04 02:07:52;;;;;;;3.30;2.20;;;9.90;60.10;;;;;;5053274;28;20025;-52
2021/04/04 02:10:25;;;;;;;6.05;2.10;;;9.90;60.10;;;;;;5056407;28;20017;-52
2021/04/04 02:12:53;;;;;;;2.85;2.13;;;9.90;60.10;;;;;;5056446;28;20017;-52
2021/04/04 02:15:20;;;;;;;5.28;1.80;;;9.90;60.20;;;;;;5056188;28;20032;-52
2021/04/04 02:17:49;;;;;;;6.88;2.47;;;9.90;60.20;;;;;;5056377;28;20446;-52
2021/04/04 02:20:17;;;;;;;3.97;1.60;;;9.90;60.20;;;;;;5056380;28;20036;-52
2021/04/04 02:22:43;;;;;;;7.03;1.98;;;9.90;60.30;;;;;;5056488;28;20032;-52
2021/04/04 02:25:11;;;;;;;2.53;1.63;;;9.90;60.30;;;;;;5056252;28;20037;-52
2021/04/04 02:27:38;;;;;;;17.60;2.53;;;9.90;60.30;;;;;;5056120;28;20115;-52
2021/04/04 02:30:05;;;;;;;3.60;1.90;;;9.90;60.30;;;;;;5056050;28;20091;-52
2021/04/04 02:32:32;;;;;;;4.70;1.65;;;9.90;60.40;;;;;;5056182;28;20021;-52
2021/04/04 02:35:01;;;;;;;2.83;1.77;;;9.90;60.30;;;;;;5055890;28;20335;-52
2021/04/04 02:37:27;;;;;;;5.82;1.65;;;9.90;60.30;;;;;;5055993;28;20028;-52
2021/04/04 02:39:59;;;;;;;4.20;1.90;;;9.80;60.30;;;;;;5055794;28;20033;-52
2021/04/04 02:42:28;;;;;;;4.13;1.98;;;9.80;60.40;;;;;;5055698;28;20021;-52
2021/04/04 02:44:56;;;;;;;4.60;2.08;;;9.80;60.40;;;;;;5056220;28;20025;-52
2021/04/04 02:48:01;;;;;;;4.00;1.90;;;9.80;60.40;;;;;;5055869;28;20588;-52
2021/04/04 02:50:28;;;;;;;6.47;2.08;;;9.80;60.40;;;;;;4974269;28;20049;-52
2021/04/04 02:52:58;;;;;;;3.83;1.98;;;9.80;60.40;;;;;;4974393;28;20461;-52
2021/04/04 02:55:25;;;;;;;5.95;2.17;;;9.80;60.40;;;;;;4974706;28;20031;-52
2021/04/04 02:58:02;;;;;;;3.88;1.70;;;9.80;60.40;;;;;;4974583;28;20158;-52
2021/04/04 03:00:29;;;;;;;6.07;1.92;;;9.80;60.50;;;;;;4991894;28;20476;-52
2021/04/04 03:02:56;;;;;;;4.47;2.25;;;9.80;60.60;;;;;;4993937;28;20050;-52
2021/04/04 03:05:26;;;;;;;5.60;2.60;;;9.80;60.60;;;;;;4993693;28;20038;-52
2021/04/04 03:07:54;;;;;;;2.30;1.50;;;9.80;60.50;;;;;;4994041;28;20034;-52
2021/04/04 03:10:20;;;;;;;8.73;2.10;;;9.80;60.60;;;;;;4993373;28;20026;-52
2021/04/04 03:12:48;;;;;;;8.95;2.38;;;9.80;60.60;;;;;;4993599;28;20034;-52
2021/04/04 03:15:17;;;;;;;6.72;2.75;;;9.80;60.60;;;;;;4993664;28;20109;-52
2021/04/04 03:17:44;;;;;;;4.97;2.05;;;9.80;60.70;;;;;;4993799;28;20083;-52
2021/04/04 03:20:11;;;;;;;9.32;2.30;;;9.80;60.70;;;;;;4992756;28;20424;-52
2021/04/04 03:22:41;;;;;;;4.95;2.38;;;9.80;60.70;;;;;;4993661;28;20026;-52
2021/04/04 03:25:09;;;;;;;4.65;2.10;;;9.80;60.70;;;;;;5003968;28;20048;-52
2021/04/04 03:27:36;;;;;;;6.38;2.25;;;9.80;60.70;;;;;;5054769;28;20052;-52
2021/04/04 03:30:07;;;;;;;7.72;1.70;;;9.80;60.80;;;;;;5054935;28;20080;-52
2021/04/04 03:32:36;;;;;;;4.68;1.95;;;9.70;60.80;;;;;;5055080;28;20028;-52
2021/04/04 03:35:06;;;;;;;7.63;1.83;;;9.70;60.70;;;;;;5055046;28;20235;-52
2021/04/04 03:37:33;;;;;;;5.57;2.08;;;9.70;60.80;;;;;;5054931;28;20489;-52
2021/04/04 03:39:59;;;;;;;3.70;1.75;;;9.80;60.90;;;;;;5054357;28;20033;-52
2021/04/04 03:42:26;;;;;;;4.68;1.65;;;9.70;60.80;;;;;;5055102;28;20446;-52
2021/04/04 03:44:55;;;;;;;6.63;1.85;;;9.70;60.90;;;;;;5054873;28;20032;-52
2021/04/04 03:47:21;;;;;;;7.57;2.10;;;9.70;60.90;;;;;;5054880;28;20044;-52
2021/04/04 03:49:47;;;;;;;6.05;1.90;;;9.70;60.80;;;;;;5067847;28;20024;-52
2021/04/04 03:52:14;;;;;;;3.65;2.03;;;9.70;60.90;;;;;;5074716;28;20111;-52
2021/04/04 03:54:40;;;;;;;5.80;2.10;;;9.70;61.00;;;;;;5074672;28;20146;-52
2021/04/04 03:57:07;;;;;;;5.93;2.10;;;9.70;61.00;;;;;;5074597;28;20114;-52
2021/04/04 03:59:34;;;;;;;4.00;1.98;;;9.70;61.00;;;;;;5074357;28;20029;-52
2021/04/04 04:02:01;;;;;;;4.38;2.40;;;9.70;61.00;;;;;;5074565;28;20119;-52
2021/04/04 04:04:27;;;;;;;8.68;2.13;;;9.70;61.00;;;;;;5074349;28;20032;-52
2021/04/04 04:06:55;;;;;;;4.32;1.77;;;9.70;61.00;;;;;;5074205;28;20125;-52
2021/04/04 04:09:21;;;;;;;3.72;2.22;;;9.70;61.00;;;;;;5074011;28;20454;-52
2021/04/04 04:11:48;;;;;;;5.55;2.33;;;9.70;61.00;;;;;;5074384;28;20068;-52
2021/04/04 04:14:17;;;;;;;4.68;2.17;;;9.60;61.00;;;;;;5074308;28;20085;-52
2021/04/04 04:16:43;;;;;;;8.45;2.38;;;9.70;61.10;;;;;;5074172;28;20450;-52
2021/04/04 04:19:11;;;;;;;9.90;2.60;;;9.70;61.10;;;;;;5073910;28;20020;-52
2021/04/04 04:21:39;;;;;;;7.13;2.20;;;9.70;61.20;;;;;;5073768;28;20045;-52
2021/04/04 04:24:09;;;;;;;2.72;1.77;;;9.70;61.20;;;;;;5074357;28;20112;-51
2021/04/04 04:26:36;;;;;;;4.05;2.28;;;9.70;61.10;;;;;;5073734;28;20262;-52
2021/04/04 04:29:02;;;;;;;3.53;2.05;;;9.70;61.20;;;;;;5073689;28;20028;-52
2021/04/04 04:31:32;;;;;;;8.32;2.22;;;9.60;61.10;;;;;;5073033;28;20484;-52
2021/04/04 04:34:00;;;;;;;5.40;2.05;;;9.60;61.20;;;;;;5073776;28;20032;-52
2021/04/04 04:36:27;;;;;;;4.45;2.42;;;9.60;61.20;;;;;;5073620;28;20115;-52
2021/04/04 04:38:54;;;;;;;7.32;2.33;;;9.60;61.20;;;;;;5073597;28;20449;-52
2021/04/04 04:41:22;;;;;;;3.67;2.08;;;9.60;61.30;;;;;;5074046;28;20021;-52
2021/04/04 04:43:53;;;;;;;10.15;2.50;;;9.60;61.20;;;;;;5074263;28;20409;-52
2021/04/04 04:46:19;;;;;;;3.20;1.92;;;9.60;61.20;;;;;;5071043;28;20033;-52
2021/04/04 04:48:45;;;;;;;4.18;2.35;;;9.60;61.20;;;;;;5065616;28;20159;-52
2021/04/04 04:51:11;;;;;;;9.18;2.03;;;9.60;61.30;;;;;;5072341;28;20066;-52
2021/04/04 04:53:38;;;;;;;7.20;1.98;;;9.60;61.30;;;;;;5073726;28;20036;-52
2021/04/04 04:56:05;;;;;;;7.45;2.53;;;9.60;61.30;;;;;;5073245;28;20020;-52
2021/04/04 04:58:33;;;;;;;6.68;1.92;;;9.60;61.30;;;;;;5058500;28;20032;-51
2021/04/04 05:01:03;;;;;;;7.53;2.25;;;9.60;61.40;;;;;;5070444;28;20025;-52
2021/04/04 05:03:29;;;;;;;9.10;2.30;;;9.60;61.40;;;;;;5073445;28;20021;-52
2021/04/04 05:06:05;;;;;;;11.90;1.83;;;9.60;61.40;;;;;;5063817;28;20131;-52
2021/04/04 05:08:32;;;;;;;6.80;2.17;;;9.60;61.40;;;;;;5061567;28;20070;-52
2021/04/04 05:11:02;;;;;;;9.20;2.08;;;9.60;61.40;;;;;;5073333;28;20041;-52
2021/04/04 05:13:28;;;;;;;11.67;3.10;;;9.60;61.40;;;;;;5073593;28;20025;-52
2021/04/04 05:15:54;;;;;;;4.93;2.30;;;9.50;61.40;;;;;;5073391;28;20028;-52
2021/04/04 05:18:20;;;;;;;5.78;2.22;;;9.60;61.50;;;;;;5073047;28;20020;-52
2021/04/04 05:20:46;;;;;;;7.28;2.50;;;9.50;61.50;;;;;;5072929;28;20024;-52
2021/04/04 05:23:19;;;;;;;6.45;1.90;;;9.60;61.60;;;;;;5073465;28;20025;-53
2021/04/04 05:25:45;;;;;;;12.18;2.25;;;9.50;61.60;;;;;;5072680;28;20044;-52
2021/04/04 05:28:10;;;;;;;7.03;2.20;;;9.60;61.60;;;;;;5073315;28;20029;-52
2021/04/04 05:30:36;;;;;;;4.22;2.15;;;9.60;61.70;;;;;;5072939;28;20495;-52
2021/04/04 05:33:04;;;;;;;7.75;2.65;;;9.60;61.60;;;;;;5073095;28;20489;-52
2021/04/04 05:35:35;;;;;;;4.28;1.85;;;9.60;61.70;;;;;;5072789;28;20024;-52
2021/04/04 05:38:00;;;;;;;4.32;2.10;;;9.60;61.70;;;;;;5073455;28;20386;-52
2021/04/04 05:40:27;;;;;;;6.03;2.85;;;9.60;61.80;;;;;;5072711;28;20507;-52
2021/04/04 05:43:12;;;;;;;5.38;2.20;;;9.60;61.80;;;;;;5075227;28;20024;-52
2021/04/04 05:45:47;;;;;;;10.13;2.13;;;9.60;61.90;;;;;;5076932;28;20059;-52
2021/04/04 05:48:42;;;;;;;6.10;2.22;;;9.60;61.90;;;;;;5076981;28;20039;-52
2021/04/04 05:51:32;;;;;;;5.40;2.13;;;9.60;61.90;;;;;;5066395;28;20025;-52
2021/04/04 05:54:37;;;;;;;5.25;1.83;;;9.60;61.90;;;;;;5070268;28;20039;-52
2021/04/04 05:57:04;;;;;;;5.75;2.38;;;9.60;62.00;;;;;;5067539;28;20039;-52
2021/04/04 05:59:35;;;;;;;7.50;3.15;;;9.60;62.00;;;;;;5075230;28;20036;-52
2021/04/04 06:02:03;;;;;;;5.72;2.70;;;9.60;62.30;;;;;;5077033;28;20404;-52
2021/04/04 06:05:09;;;;;;;7.40;2.80;;;9.80;62.50;;;;;;5076563;28;20506;-52
2021/04/04 06:08:06;;;;;;;9.90;3.30;;;9.90;62.10;;;;;;5076686;28;20036;-52
2021/04/04 06:11:12;;;;;;;7.57;3.40;;;10.10;61.30;;;;;;5076203;28;20082;-52
2021/04/04 06:14:05;;;;;;;10.25;3.13;;;10.10;61.00;;;;;;5073215;28;20063;-51
2021/04/04 06:16:51;;;;;;;9.23;2.70;;;10.10;59.60;;;;;;5069502;28;20020;-51
2021/04/04 06:19:54;;;;;;;11.63;3.20;;;10.10;57.90;;;;;;5076029;28;20027;-51
2021/04/04 06:22:24;;;;;;;7.03;2.58;;;10.00;56.80;;;;;;5076206;28;20103;-51
2021/04/04 06:24:57;;;;;;;10.40;3.10;;;10.00;56.40;;;;;;5076310;28;20370;-51
2021/04/04 06:27:50;;;;;;;11.57;2.97;;;10.00;56.00;;;;;;5076019;28;20041;-51
2021/04/04 06:30:46;;;;;;;6.45;3.05;;;10.00;55.70;;;;;;5076050;28;20074;-51
2021/04/04 06:33:25;;;;;;;9.60;3.22;;;10.00;55.50;;;;;;5076252;28;20468;-51
2021/04/04 06:36:16;;;;;;;8.30;3.53;;;10.00;55.20;;;;;;5075859;28;20334;-51
2021/04/04 06:39:01;;;;;;;6.53;3.03;;;10.00;55.00;;;;;;5075949;28;20461;-51
2021/04/04 06:41:53;;;;;;;6.68;3.15;;;10.10;55.00;;;;;;5075728;28;20029;-51
2021/04/04 06:44:44;;;;;;;7.95;3.30;;;10.20;55.00;;;;;;5076220;28;20028;-51
2021/04/04 06:47:16;;;;;;;;;;;10.20;54.70;;;;;;5076116;28;20044;-50
2021/04/04 06:49:50;;;;;;;8.98;2.92;;;10.20;54.60;;;;;;5075224;28;19905;-50
2021/04/04 06:52:53;;;;;;;5.85;3.17;;;10.30;54.70;;;;;;5070174;28;20135;-51
2021/04/04 06:55:40;;;;;;;4.05;2.38;;;10.30;54.60;;;;;;5073202;28;20023;-51
2021/04/04 06:58:29;;;;;;;5.90;2.78;;;10.40;54.70;;;;;;5073764;28;20115;-50
2021/04/04 07:01:05;;;;;;;8.85;2.92;;;10.50;54.80;;;;;;5073469;28;20047;-51
2021/04/04 07:03:44;;;;;;;12.75;3.25;;;10.60;54.80;;;;;;5073830;28;20035;-50
2021/04/04 07:06:27;;;;;;;6.93;3.00;;;10.60;54.80;;;;;;5074475;28;20450;-51
2021/04/04 07:09:21;;;;;;;8.07;3.08;;;10.70;54.70;;;;;;5075481;28;20093;-51
2021/04/04 07:12:11;;;;;;;5.72;3.15;;;10.80;54.70;;;;;;5075616;28;20090;-51
2021/04/04 07:14:53;;;;;;;6.72;2.25;;;10.90;54.40;;;;;;5075607;28;20552;-50
2021/04/04 07:17:43;;;;;;;8.18;2.45;;;11.00;54.10;;;;;;5075377;28;20572;-51
2021/04/04 07:20:33;;;;;;;7.35;3.88;;;11.00;53.80;;;;;;5075253;28;20027;-50
2021/04/04 07:23:33;;;;;;;10.27;3.30;;;11.10;53.60;;;;;;5072025;28;20037;-51
2021/04/04 07:26:24;;;;;;;6.53;2.97;;;11.20;53.20;;;;;;5060296;28;20086;-50
2021/04/04 07:29:13;;;;;;;8.38;2.80;;;11.20;53.10;;;;;;5055041;28;20127;-51
2021/04/04 07:31:51;;;;;;;9.05;3.13;;;11.30;52.80;;;;;;5054935;28;20025;-51
2021/04/04 07:34:23;;;;;;;7.20;3.50;;;11.40;52.60;;;;;;5055001;28;20500;-51
2021/04/04 07:37:00;;;;;;;12.00;3.25;;;11.50;52.60;;;;;;5055169;28;20029;-51
2021/04/04 07:39:52;;;;;;;6.65;2.55;;;11.50;52.20;;;;;;5055004;28;20052;-51
2021/04/04 07:42:23;;;;;;;7.57;2.70;;;11.60;52.10;;;;;;5054737;28;20472;-51
2021/04/04 07:45:01;;;;;;;9.32;2.20;;;11.60;51.80;;;;;;5055148;28;20033;-51
2021/04/04 07:47:48;;;;;;;10.02;2.03;;;11.70;51.60;;;;;;5063273;28;20063;-51
2021/04/04 07:50:23;;;;;;;7.78;2.92;;;11.80;51.50;;;;;;5068033;28;20070;-51
2021/04/04 07:53:08;;;;;;;9.85;2.85;;;11.80;51.00;;;;;;5074575;28;20033;-51
2021/04/04 07:55:43;;;;;;;7.60;2.88;;;11.90;50.60;;;;;;5074836;28;20028;-51
2021/04/04 07:58:24;;;;;;;7.65;3.00;;;11.90;50.50;;;;;;5074620;28;20111;-51
2021/04/04 08:01:12;;;;;;;7.07;2.95;;;12.00;49.80;;;;;;5074709;28;20090;-51
2021/04/04 08:03:41;;;;;;;6.05;2.67;;;12.00;49.60;;;;;;5074597;28;20036;-50
2021/04/04 08:06:14;;;;;;;8.32;2.50;;;12.10;49.60;;;;;;5073046;28;20036;-51
2021/04/04 08:08:43;;;;;;;6.43;1.90;;;12.10;49.30;;;;;;5073947;28;20028;-51
2021/04/04 08:11:21;;;;;;;10.52;3.75;;;12.20;49.10;;;;;;5074357;28;20100;-50
2021/04/04 08:13:55;;;;;;;8.70;3.35;;;12.20;48.60;;;;;;5073956;28;20036;-51
2021/04/04 08:16:32;;;;;;;8.82;2.88;;;12.20;48.00;;;;;;5074200;28;20049;-50
2021/04/04 08:18:58;;;;;;;10.30;2.00;;;12.30;48.30;;;;;;5073821;28;20404;-50
2021/04/04 08:21:31;;;;;;;10.88;2.95;;;12.40;48.20;;;;;;5062423;28;20016;-51
2021/04/04 08:24:10;;;;;;;14.65;3.10;;;12.40;47.90;;;;;;5054135;28;20478;-51
2021/04/04 08:26:50;;;;;;;18.23;5.25;;;12.50;47.90;;;;;;5069361;28;20123;-52
2021/04/04 08:29:24;;;;;;;10.43;4.20;;;12.60;47.90;;;;;;5063587;28;20043;-51
2021/04/04 08:31:58;;;;;;;16.45;4.00;;;12.60;47.70;;;;;;5072213;28;20024;-51
2021/04/04 08:34:28;;;;;;;7.00;2.42;;;12.60;47.40;;;;;;5066017;28;20029;-51
2021/04/04 08:37:18;;;;;;;17.23;4.22;;;12.60;47.50;;;;;;5061222;28;20045;-52
2021/04/04 08:39:53;;;;;;;5.57;2.95;;;12.60;46.40;;;;;;5068327;28;20454;-51
2021/04/04 08:42:19;;;;;;;5.10;2.10;;;12.70;46.80;;;;;;5068905;28;20032;-51
2021/04/04 08:44:54;;;;;;;7.03;2.05;;;12.80;46.80;;;;;;5073577;28;20107;-52
2021/04/04 08:47:29;;;;;;;5.50;2.05;;;12.90;46.80;;;;;;5073506;28;20469;-51
2021/04/04 08:49:57;;;;;;;10.80;3.20;;;12.90;46.70;;;;;;5058955;28;20242;-52
2021/04/04 08:52:53;;;;;;;7.43;3.40;;;12.90;46.40;;;;;;5053437;28;20033;-52
2021/04/04 08:55:23;;;;;;;8.30;3.08;;;12.90;46.00;;;;;;5061053;28;20124;-52
2021/04/04 08:57:52;;;;;;;3.28;0.95;;;12.90;45.60;;;;;;5069821;28;20023;-52
2021/04/04 09:00:21;;;;;;;9.55;1.90;;;13.00;45.50;;;;;;5068404;28;20035;-52
2021/04/04 09:03:04;;;;;;;11.50;1.77;;;13.10;45.20;;;;;;5073188;28;20034;-52
2021/04/04 09:05:33;;;;;;;6.30;2.78;;;13.10;45.00;;;;;;5073367;28;20032;-52
2021/04/04 09:08:01;;;;;;;2.08;1.35;;;13.10;44.90;;;;;;5072944;28;20353;-52
2021/04/04 09:10:31;;;;;;;3.17;2.17;;;13.20;44.80;;;;;;5073326;28;20082;-52
2021/04/04 09:12:58;;;;;;;4.22;1.83;;;13.20;44.70;;;;;;5073254;28;20445;-52
2021/04/04 09:15:24;;;;;;;2.63;1.67;;;13.30;44.60;;;;;;5073372;28;20044;-52
2021/04/04 09:17:56;;;;;;;6.75;3.17;;;13.30;44.60;;;;;;5072928;28;20033;-52
2021/04/04 09:20:32;;;;;;;4.80;2.38;;;13.10;42.40;;;;;;5072628;28;20023;-52
2021/04/04 09:23:00;;;;;;;6.93;2.53;;;12.90;40.60;;;;;;5073374;28;20039;-52
2021/04/04 09:25:27;;;;;;;5.35;2.72;;;12.90;42.00;;;;;;5073304;28;20067;-52
2021/04/04 09:27:57;;;;;;;8.45;2.47;;;13.00;42.10;;;;;;5072854;28;20148;-52
2021/04/04 09:30:33;;;;;;;2.97;2.03;;;13.10;42.20;;;;;;5073056;28;20028;-52
2021/04/04 09:33:19;;;;;;;6.28;2.70;;;13.20;42.60;;;;;;5072901;28;20031;-52
2021/04/04 09:35:53;;;;;;;9.15;2.50;;;13.30;42.60;;;;;;5073169;28;20109;-52
2021/04/04 09:38:19;;;;;;;4.15;2.30;;;13.30;42.60;;;;;;5072947;28;20035;-52
2021/04/04 09:40:46;;;;;;;5.38;2.85;;;13.30;42.80;;;;;;5073001;28;20021;-52
2021/04/04 09:43:14;;;;;;;6.85;3.10;;;13.30;42.70;;;;;;5072836;28;20024;-52
2021/04/04 09:45:41;;;;;;;3.80;2.53;;;13.30;42.70;;;;;;5073211;28;20029;-52
2021/04/04 09:48:24;;;;;;;7.50;2.95;;;13.30;42.60;;;;;;5070056;28;20036;-52
2021/04/04 09:51:09;;;;;;;4.40;2.63;;;13.30;42.40;;;;;;5067580;28;20120;-52
2021/04/04 09:53:35;;;;;;;6.60;2.85;;;13.30;42.90;;;;;;5067754;28;20473;-54
2021/04/04 09:56:05;;;;;;;6.55;2.88;;;13.20;42.10;;;;;;5068256;28;20043;-52
2021/04/04 09:58:31;;;;;;;4.10;2.70;;;13.20;42.60;;;;;;5067070;28;20032;-52
2021/04/04 10:00:59;;;;;;;4.75;2.38;;;13.20;42.50;;;;;;5058650;28;20041;-52
2021/04/04 10:03:25;;;;;;;3.80;2.47;;;13.10;41.80;;;;;;5072652;28;20392;-52
2021/04/04 10:05:51;;;;;;;8.00;2.00;;;13.10;42.70;;;;;;5072598;28;20025;-52
2021/04/04 10:08:23;;;;;;;5.38;2.30;;;13.20;43.00;;;;;;5070017;28;20501;-52
2021/04/04 10:10:54;;;;;;;7.10;2.50;;;13.20;42.70;;;;;;5062954;28;20032;-52
2021/04/04 10:13:26;;;;;;;3.35;2.25;;;13.10;42.80;;;;;;5072572;28;20029;-52
2021/04/04 10:15:52;;;;;;;5.10;2.50;;;13.20;42.90;;;;;;5072683;28;20465;-52
2021/04/04 10:18:20;;;;;;;3.70;2.58;;;13.00;41.70;;;;;;5072446;28;20038;-52
2021/04/04 10:20:48;;;;;;;6.28;2.13;;;13.10;42.30;;;;;;5072314;28;20052;-52
2021/04/04 10:23:15;;;;;;;7.40;2.72;;;13.00;42.30;;;;;;5072736;28;20446;-52
2021/04/04 10:26:00;;;;;;;5.28;1.90;;;13.00;42.40;;;;;;5072609;28;20044;-52
2021/04/04 10:28:40;;;;;;;7.10;2.42;;;13.00;42.00;;;;;;5072062;28;20135;-52
2021/04/04 10:31:05;;;;;;;3.63;1.98;;;12.90;41.40;;;;;;5076295;28;20408;-52
2021/04/04 10:33:31;;;;;;;4.50;2.17;;;12.90;41.90;;;;;;5075526;28;20025;-52
2021/04/04 10:35:57;;;;;;;2.13;1.73;;;12.80;41.80;;;;;;5076293;28;20375;-52
2021/04/04 10:38:25;;;;;;;6.00;2.13;;;12.90;42.40;;;;;;5073848;28;20028;-52
2021/04/04 10:40:56;;;;;;;2.88;1.83;;;12.90;42.20;;;;;;5079333;28;20028;-52
2021/04/04 10:43:41;;;;;;;8.13;2.10;;;12.90;42.10;;;;;;5076109;28;20021;-52
2021/04/04 10:46:10;;;;;;;6.63;2.03;;;12.90;42.20;;;;;;5068923;28;20098;-52
2021/04/04 10:48:41;;;;;;;8.70;1.70;;;12.90;42.30;;;;;;5074884;28;20025;-52
2021/04/04 10:51:10;;;;;;;3.40;1.88;;;12.80;40.50;;;;;;5075965;28;20113;-52
2021/04/04 10:53:37;;;;;;;2.67;1.85;;;12.60;40.60;;;;;;5064805;28;20354;-52
2021/04/04 10:56:08;;;;;;;8.20;2.45;;;12.60;41.00;;;;;;5069540;28;20078;-52
2021/04/04 10:58:34;;;;;;;4.05;2.17;;;12.70;40.90;;;;;;5074918;28;20028;-52
2021/04/04 11:01:02;;;;;;;2.83;1.70;;;12.70;41.40;;;;;;5075422;28;20041;-52
2021/04/04 11:03:28;;;;;;;4.00;1.88;;;12.70;40.50;;;;;;5075555;28;20028;-52
2021/04/04 11:05:55;;;;;;;7.80;1.63;;;12.60;40.90;;;;;;5075460;28;20032;-52
2021/04/04 11:08:21;;;;;;;4.03;1.70;;;12.60;41.30;;;;;;5070317;28;20063;-52
2021/04/04 11:10:48;;;;;;;2.70;1.65;;;12.70;41.70;;;;;;5055311;28;20031;-52
2021/04/04 11:13:15;;;;;;;5.82;2.35;;;12.60;41.50;;;;;;5055580;28;20033;-52
2021/04/04 11:15:48;;;;;;;3.35;2.00;;;12.60;41.80;;;;;;5055068;28;20491;-52
2021/04/04 11:18:18;;;;;;;4.55;1.88;;;12.60;41.80;;;;;;5055324;28;20027;-52
2021/04/04 11:20:46;;;;;;;5.18;2.25;;;12.60;41.20;;;;;;5060118;28;20418;-52
2021/04/04 11:23:17;;;;;;;4.47;2.72;;;12.60;42.20;;;;;;5069400;28;20063;-52
2021/04/04 11:25:43;;;;;;;3.25;1.90;;;12.50;40.60;;;;;;5069926;28;20338;-52
2021/04/04 11:28:20;;;;;;;2.22;1.70;;;12.50;41.90;;;;;;5075086;28;20468;-52
2021/04/04 11:30:48;;;;;;;9.85;3.03;;;12.50;42.70;;;;;;5072745;28;20028;-52
2021/04/04 11:33:16;;;;;;;7.88;1.88;;;12.60;42.50;;;;;;5073274;28;20696;-52
2021/04/04 11:35:59;;;;;;;3.25;1.27;;;12.50;42.40;;;;;;5068263;28;20150;-52
2021/04/04 11:38:26;;;;;;;3.97;1.73;;;12.60;42.60;;;;;;5065957;28;20072;-52
2021/04/04 11:41:20;;;;;;;4.78;1.70;;;12.60;43.00;;;;;;5074714;28;20021;-52
2021/04/04 11:43:51;;;;;;;3.15;1.85;;;12.50;43.40;;;;;;5053768;28;20025;-52
2021/04/04 11:46:41;;;;;;;6.68;2.20;;;12.60;43.80;;;;;;5054393;28;20047;-52
2021/04/04 11:49:46;;;;;;;2.38;1.70;;;12.50;42.40;;;;;;5054580;28;20025;-52
2021/04/04 11:52:11;;;;;;;5.22;1.83;;;12.40;41.60;;;;;;5054769;28;20037;-52
2021/04/04 11:54:46;;;;;;;4.88;1.60;;;12.50;42.90;;;;;;5054122;28;20025;-52
2021/04/04 11:57:24;;;;;;;4.55;1.30;;;12.50;43.30;;;;;;5054710;28;20112;-52
2021/04/04 12:00:05;;;;;;;9.48;2.15;;;12.50;43.70;;;;;;5054398;28;20482;-52
2021/04/04 12:02:32;;;;;;;2.38;1.33;;;12.50;44.10;;;;;;5054562;28;20029;-52
2021/04/04 12:05:04;;;;;;;3.28;2.00;;;12.60;44.00;;;;;;5056761;28;20032;-52
2021/04/04 12:07:29;;;;;;;5.45;1.80;;;12.60;43.80;;;;;;5063655;28;20032;-52
2021/04/04 12:09:56;;;;;;;4.75;2.42;;;12.50;44.10;;;;;;5063573;28;20025;-52
2021/04/04 12:12:22;;;;;;;4.32;1.70;;;12.50;42.30;;;;;;5064945;28;20078;-52
2021/04/04 12:14:47;;;;;;;3.65;1.77;;;12.40;43.10;;;;;;5065155;28;20064;-52
2021/04/04 12:17:14;;;;;;;1.23;1.13;;;12.40;43.70;;;;;;5062135;28;20032;-52
2021/04/04 12:19:45;;;;;;;3.72;1.77;;;12.40;43.80;;;;;;5056151;28;20033;-52
2021/04/04 12:22:13;;;;;;;3.22;1.65;;;12.50;43.50;;;;;;5054085;28;20389;-52
2021/04/04 12:24:42;;;;;;;8.57;2.00;;;12.50;43.50;;;;;;5071330;28;20074;-53
2021/04/04 12:27:09;;;;;;;6.00;2.15;;;12.50;44.00;;;;;;5061750;28;20068;-52
2021/04/04 12:29:43;;;;;;;5.15;2.13;;;12.50;42.70;;;;;;5053849;28;20028;-52
2021/04/04 12:32:09;;;;;;;4.97;2.17;;;12.40;43.80;;;;;;5052477;28;20033;-52
2021/04/04 12:34:40;;;;;;;4.85;1.90;;;12.40;44.20;;;;;;5054072;28;20043;-52
2021/04/04 12:37:13;;;;;;;7.43;1.92;;;12.40;44.20;;;;;;5053817;28;20025;-52
2021/04/04 12:39:40;;;;;;;3.03;1.83;;;12.40;44.40;;;;;;5053734;28;20032;-52
2021/04/04 12:42:08;;;;;;;3.22;1.90;;;12.40;44.40;;;;;;5053823;28;20405;-52
2021/04/04 12:44:35;;;;;;;3.40;2.35;;;12.40;44.50;;;;;;5053971;28;20083;-52
2021/04/04 12:47:13;;;;;;;5.13;2.42;;;12.40;44.10;;;;;;5052280;28;20059;-52
2021/04/04 12:49:40;;;;;;;3.08;1.90;;;12.40;44.30;;;;;;5053402;28;20596;-52
2021/04/04 12:52:07;;;;;;;4.03;1.13;;;12.40;44.40;;;;;;5055430;28;20040;-52
2021/04/04 12:54:33;;;;;;;11.18;4.05;;;12.50;44.60;;;;;;5059776;28;20025;-52
2021/04/04 12:56:59;;;;;;;27.75;5.43;;;12.50;44.40;;;;;;5066981;28;20112;-52
2021/04/04 12:59:25;;;;;;;4.63;2.55;;;12.50;44.90;;;;;;5070071;28;20460;-52
2021/04/04 13:01:53;;;;;;;9.88;2.40;;;12.50;44.30;;;;;;5073152;28;20021;-52
2021/04/04 13:04:22;;;;;;;2.50;1.92;;;12.50;44.00;;;;;;5073857;28;20029;-52
2021/04/04 13:06:48;;;;;;;6.93;2.38;;;12.50;44.10;;;;;;5069225;28;20037;-52
2021/04/04 13:09:15;;;;;;;5.70;1.98;;;12.50;43.30;;;;;;5059750;28;20032;-52
2021/04/04 13:11:43;;;;;;;3.55;2.03;;;12.50;43.60;;;;;;5073054;28;20021;-52
2021/04/04 13:14:13;;;;;;;4.13;2.38;;;12.40;43.90;;;;;;5073821;28;20024;-52
2021/04/04 13:16:40;;;;;;;2.53;1.58;;;12.40;44.60;;;;;;5073200;28;20103;-52